Time;durP1;ratioP1;P1;durP2;ratioP2;P2;SDS_P1;SDS_P2;PMS_P1;PMS_P2;Temp;Humidity;BMP_temperature;BMP_pressure;BME280_temperature;BME280_humidity;BME280_pressure;Samples;Min_cycle;Max_cycle;Signal;HPM_P1;HPM_P2
2023/06/10 00:02:21;;;;;;;8.73;4.50;;;22.80;63.40;;;;;;5055724;28;20447;-56
2023/06/10 00:04:47;;;;;;;7.07;5.05;;;22.70;63.30;;;;;;5055499;28;20031;-55
2023/06/10 00:07:13;;;;;;;6.53;4.85;;;22.70;63.50;;;;;;5055441;28;20434;-54
2023/06/10 00:09:39;;;;;;;7.60;4.93;;;22.70;63.80;;;;;;5055354;28;20029;-55
2023/06/10 00:12:12;;;;;;;6.88;4.60;;;22.70;64.00;;;;;;5055327;28;20020;-56
2023/06/10 00:14:39;;;;;;;8.00;5.00;;;22.70;64.30;;;;;;5055280;28;20025;-56
2023/06/10 00:17:09;;;;;;;6.55;4.97;;;22.70;64.40;;;;;;5055537;28;20017;-55
2023/06/10 00:19:36;;;;;;;7.77;4.90;;;22.70;64.60;;;;;;5037609;28;20025;-55
2023/06/10 00:22:02;;;;;;;6.80;4.75;;;22.70;64.80;;;;;;5055612;28;20028;-56
2023/06/10 00:24:29;;;;;;;7.55;4.85;;;22.70;64.80;;;;;;5055511;28;20085;-56
2023/06/10 00:26:54;;;;;;;6.30;4.80;;;22.70;65.20;;;;;;5055582;28;20116;-55
2023/06/10 00:29:20;;;;;;;6.82;4.60;;;22.60;65.40;;;;;;5055201;28;20032;-55
2023/06/10 00:31:46;;;;;;;8.75;5.00;;;22.60;65.50;;;;;;5055093;28;20384;-55
2023/06/10 00:34:12;;;;;;;6.65;5.00;;;22.60;65.90;;;;;;5054793;28;20154;-55
2023/06/10 00:36:38;;;;;;;6.55;4.40;;;22.60;66.30;;;;;;5055418;28;20606;-56
2023/06/10 00:39:04;;;;;;;6.55;4.78;;;22.60;66.50;;;;;;5055387;28;20492;-55
2023/06/10 00:41:30;;;;;;;9.07;5.07;;;22.60;66.90;;;;;;5055030;28;20388;-55
2023/06/10 00:43:56;;;;;;;5.78;4.60;;;22.60;67.80;;;;;;5055458;28;20102;-56
2023/06/10 00:46:23;;;;;;;7.97;5.43;;;22.60;67.50;;;;;;5055223;28;20033;-55
2023/06/10 00:48:49;;;;;;;8.63;5.05;;;22.60;68.00;;;;;;5055065;28;20025;-56
2023/06/10 00:51:19;;;;;;;6.50;4.72;;;22.60;68.70;;;;;;5054655;28;20063;-55
2023/06/10 00:53:45;;;;;;;8.10;5.32;;;22.60;69.60;;;;;;5054820;28;20029;-55
2023/06/10 00:56:11;;;;;;;6.40;5.00;;;22.60;70.00;;;;;;5055063;28;20362;-55
2023/06/10 00:58:37;;;;;;;9.68;5.10;;;22.60;70.00;;;;;;5054820;28;20021;-56
2023/06/10 01:01:03;;;;;;;7.03;5.22;;;22.60;69.90;;;;;;5055413;28;20039;-55
2023/06/10 01:03:29;;;;;;;6.97;4.93;;;22.50;70.20;;;;;;5054669;28;20086;-56
2023/06/10 01:06:06;;;;;;;9.55;5.15;;;22.50;70.90;;;;;;5054575;28;20477;-55
2023/06/10 01:08:31;;;;;;;7.28;4.40;;;22.50;71.60;;;;;;5054269;28;20045;-56
2023/06/10 01:11:01;;;;;;;6.68;4.85;;;22.50;72.30;;;;;;5054449;28;20548;-56
2023/06/10 01:13:28;;;;;;;8.77;4.60;;;22.50;72.50;;;;;;5054742;28;20025;-56
2023/06/10 01:15:58;;;;;;;7.90;4.40;;;22.50;72.20;;;;;;5054102;28;20034;-54
2023/06/10 01:18:30;;;;;;;6.88;4.72;;;22.50;71.90;;;;;;5054469;28;20606;-53
2023/06/10 01:20:56;;;;;;;7.50;4.65;;;22.50;71.50;;;;;;5054629;28;20040;-56
2023/06/10 01:23:22;;;;;;;6.60;4.72;;;22.50;71.50;;;;;;5054182;28;20029;-56
2023/06/10 01:26:00;;;;;;;5.50;4.47;;;22.50;71.60;;;;;;5054543;28;20027;-56
2023/06/10 01:28:56;;;;;;;6.10;4.70;;;22.50;71.90;;;;;;5054830;28;20384;-53
2023/06/10 01:31:57;;;;;;;6.10;4.60;;;22.50;72.40;;;;;;5054479;28;20396;-56
2023/06/10 01:34:24;;;;;;;7.35;4.22;;;22.50;73.00;;;;;;5049112;28;20036;-56
2023/06/10 01:36:50;;;;;;;6.00;4.45;;;22.50;73.90;;;;;;5054474;28;20369;-57
2023/06/10 01:39:19;;;;;;;7.15;4.60;;;22.50;74.40;;;;;;5054463;28;20542;-57
2023/06/10 01:41:46;;;;;;;5.38;4.50;;;22.50;74.50;;;;;;5054166;28;20051;-56
2023/06/10 01:44:12;;;;;;;9.95;5.32;;;22.50;74.80;;;;;;5054435;28;20032;-57
2023/06/10 01:46:37;;;;;;;7.10;4.85;;;22.50;75.30;;;;;;5053609;28;20031;-56
2023/06/10 01:49:03;;;;;;;10.30;5.50;;;22.50;75.30;;;;;;5053964;28;20435;-56
2023/06/10 01:51:31;;;;;;;6.03;4.38;;;22.50;75.50;;;;;;5053011;28;20025;-57
2023/06/10 01:53:57;;;;;;;6.25;4.53;;;22.60;75.50;;;;;;5054001;28;20488;-57
2023/06/10 01:56:22;;;;;;;7.43;4.72;;;22.50;75.40;;;;;;5053524;28;20085;-57
2023/06/10 01:58:48;;;;;;;5.93;4.65;;;22.60;75.50;;;;;;5053503;28;20111;-55
2023/06/10 02:01:14;;;;;;;8.65;4.90;;;22.60;75.30;;;;;;5053721;28;20573;-55
2023/06/10 02:03:40;;;;;;;6.35;4.60;;;22.60;75.30;;;;;;5054015;28;20400;-56
2023/06/10 02:06:05;;;;;;;6.18;4.45;;;22.60;75.40;;;;;;5053845;28;20047;-55
2023/06/10 02:08:31;;;;;;;6.80;4.72;;;22.60;75.50;;;;;;5053731;28;20049;-55
2023/06/10 02:10:57;;;;;;;5.93;4.50;;;22.60;75.80;;;;;;5053432;28;20388;-56
2023/06/10 02:13:22;;;;;;;7.57;4.80;;;22.60;76.00;;;;;;5053642;28;20032;-56
2023/06/10 02:15:48;;;;;;;6.50;4.47;;;22.60;76.20;;;;;;5053219;28;20025;-56
2023/06/10 02:18:13;;;;;;;6.70;4.85;;;22.60;76.50;;;;;;5053091;28;20037;-56
2023/06/10 02:20:39;;;;;;;6.60;4.43;;;22.60;76.80;;;;;;5053409;28;20041;-53
2023/06/10 02:23:05;;;;;;;8.65;4.80;;;22.60;76.80;;;;;;5053260;28;20033;-56
2023/06/10 02:25:31;;;;;;;7.40;4.50;;;22.70;76.70;;;;;;5053270;28;20021;-56
2023/06/10 02:27:56;;;;;;;6.97;4.22;;;22.70;76.70;;;;;;5053265;28;20112;-55
2023/06/10 02:30:22;;;;;;;6.30;4.85;;;22.70;76.40;;;;;;5052986;28;20021;-56
2023/06/10 02:32:48;;;;;;;5.93;4.28;;;22.70;76.20;;;;;;5053215;28;20021;-56
2023/06/10 02:35:17;;;;;;;5.85;4.10;;;22.70;75.90;;;;;;5053555;28;20025;-56
2023/06/10 02:37:43;;;;;;;5.60;4.07;;;22.80;75.80;;;;;;5053387;28;20019;-56
2023/06/10 02:40:10;;;;;;;7.90;4.53;;;22.80;75.80;;;;;;5053199;28;20029;-56
2023/06/10 02:42:36;;;;;;;7.32;4.60;;;22.80;75.80;;;;;;5053519;28;20025;-56
2023/06/10 02:45:02;;;;;;;6.03;4.57;;;22.80;75.80;;;;;;5053282;28;20035;-54
2023/06/10 02:47:27;;;;;;;8.40;4.70;;;22.90;75.90;;;;;;5053520;28;20032;-56
2023/06/10 02:49:53;;;;;;;6.90;3.90;;;22.90;76.10;;;;;;5053354;28;20048;-55
2023/06/10 02:52:20;;;;;;;7.13;4.88;;;23.00;76.20;;;;;;5052855;28;20025;-55
2023/06/10 02:54:46;;;;;;;5.18;4.30;;;23.00;75.90;;;;;;5052809;28;20033;-55
2023/06/10 02:57:11;;;;;;;6.20;4.72;;;23.10;76.10;;;;;;5053240;28;20159;-56
2023/06/10 02:59:37;;;;;;;5.90;4.60;;;23.10;76.10;;;;;;5053234;28;20032;-56
2023/06/10 03:02:03;;;;;;;5.82;4.50;;;23.20;76.10;;;;;;5053639;28;20559;-56
2023/06/10 03:04:30;;;;;;;5.47;4.20;;;23.20;75.90;;;;;;5052990;28;20082;-56
2023/06/10 03:06:56;;;;;;;6.75;4.53;;;23.30;75.90;;;;;;5053436;28;20027;-56
2023/06/10 03:09:21;;;;;;;6.22;4.80;;;23.30;75.60;;;;;;5052815;28;20132;-56
2023/06/10 03:11:47;;;;;;;7.20;5.00;;;23.40;75.30;;;;;;5052820;28;20036;-54
2023/06/10 03:14:12;;;;;;;5.15;4.40;;;23.50;75.20;;;;;;5053109;28;20064;-56
2023/06/10 03:16:42;;;;;;;8.60;4.82;;;23.60;75.30;;;;;;5053285;28;20033;-56
2023/06/10 03:19:08;;;;;;;5.72;4.60;;;23.70;74.80;;;;;;5053079;28;20029;-56
2023/06/10 03:21:37;;;;;;;7.45;4.95;;;23.70;74.70;;;;;;5052926;28;20116;-56
2023/06/10 03:24:03;;;;;;;8.15;4.85;;;23.80;74.70;;;;;;5052562;28;20033;-55
2023/06/10 03:26:29;;;;;;;9.93;5.00;;;23.90;74.70;;;;;;5052991;28;20067;-56
2023/06/10 03:28:54;;;;;;;6.43;4.70;;;24.00;74.50;;;;;;5052634;28;20388;-55
2023/06/10 03:31:20;;;;;;;6.45;4.72;;;24.00;74.20;;;;;;5052866;28;20025;-56
2023/06/10 03:33:45;;;;;;;8.05;4.90;;;24.10;74.10;;;;;;5052919;28;20032;-56
2023/06/10 03:36:11;;;;;;;6.13;5.03;;;24.20;73.80;;;;;;5052914;28;20037;-56
2023/06/10 03:38:37;;;;;;;6.05;4.72;;;24.30;73.60;;;;;;5052930;28;20041;-56
2023/06/10 03:41:03;;;;;;;6.68;4.95;;;24.30;73.60;;;;;;5052951;28;20391;-55
2023/06/10 03:43:28;;;;;;;6.90;5.22;;;24.40;73.90;;;;;;5052588;28;20043;-55
2023/06/10 03:45:54;;;;;;;8.15;5.35;;;24.50;73.70;;;;;;5051043;28;20027;-56
2023/06/10 03:48:20;;;;;;;6.85;5.20;;;24.50;73.20;;;;;;5050849;28;20028;-56
2023/06/10 03:50:47;;;;;;;6.18;4.47;;;24.50;73.00;;;;;;5051085;28;20029;-56
2023/06/10 03:53:13;;;;;;;7.90;5.28;;;24.50;72.90;;;;;;5050483;28;20088;-56
2023/06/10 03:55:38;;;;;;;6.95;5.15;;;24.50;72.80;;;;;;5051063;28;20548;-56
2023/06/10 03:58:04;;;;;;;8.15;4.97;;;24.60;73.10;;;;;;5051196;28;20025;-56
2023/06/10 04:00:30;;;;;;;9.32;5.53;;;24.60;72.90;;;;;;5050569;28;20029;-55
2023/06/10 04:02:57;;;;;;;6.65;5.05;;;24.50;72.90;;;;;;5049842;28;20707;-56
2023/06/10 04:05:23;;;;;;;7.80;5.25;;;24.50;73.10;;;;;;5030640;28;20029;-55
2023/06/10 04:07:49;;;;;;;6.50;4.95;;;24.50;73.20;;;;;;5048578;28;20087;-55
2023/06/10 04:10:15;;;;;;;7.05;5.40;;;24.60;73.20;;;;;;5049671;28;20048;-56
2023/06/10 04:12:42;;;;;;;7.38;4.57;;;24.70;74.00;;;;;;5049566;28;20319;-55
2023/06/10 04:15:08;;;;;;;5.95;4.50;;;25.20;72.60;;;;;;5050600;28;20025;-55
2023/06/10 04:17:34;;;;;;;7.90;5.00;;;25.40;71.20;;;;;;5053921;28;20253;-56
2023/06/10 04:20:00;;;;;;;6.88;4.85;;;25.60;70.40;;;;;;5053430;28;20025;-55
2023/06/10 04:22:26;;;;;;;7.07;5.07;;;25.60;69.80;;;;;;5054114;28;20029;-56
2023/06/10 04:24:52;;;;;;;7.95;4.70;;;25.70;70.20;;;;;;5054588;28;20036;-56
2023/06/10 04:27:18;;;;;;;7.05;4.45;;;26.10;71.30;;;;;;5056509;28;20025;-56
2023/06/10 04:29:43;;;;;;;6.03;4.43;;;27.00;70.20;;;;;;5057005;28;20465;-57
2023/06/10 04:32:09;;;;;;;6.88;4.30;;;28.10;68.30;;;;;;5058264;28;20029;-54
2023/06/10 04:34:35;;;;;;;6.97;4.25;;;29.10;65.50;;;;;;5058976;28;20021;-55
2023/06/10 04:37:01;;;;;;;5.82;4.85;;;29.80;63.80;;;;;;5058935;28;20052;-55
2023/06/10 04:39:27;;;;;;;7.15;4.93;;;30.20;61.90;;;;;;5060025;28;20476;-55
2023/06/10 04:41:52;;;;;;;6.72;4.57;;;30.40;60.80;;;;;;5059197;28;20028;-56
2023/06/10 04:44:18;;;;;;;6.03;4.72;;;30.40;60.20;;;;;;5059278;28;20033;-56
2023/06/10 04:46:45;;;;;;;8.60;4.85;;;30.30;59.40;;;;;;5058484;28;20032;-54
2023/06/10 04:49:10;;;;;;;7.50;4.25;;;30.10;59.20;;;;;;5057508;28;20021;-55
2023/06/10 04:51:37;;;;;;;7.03;4.55;;;29.90;59.20;;;;;;5058621;28;20025;-56
2023/06/10 04:54:03;;;;;;;7.22;4.88;;;29.80;59.40;;;;;;5058059;28;20025;-56
2023/06/10 04:56:30;;;;;;;8.00;4.40;;;30.00;59.30;;;;;;5058228;28;20036;-55
2023/06/10 04:58:59;;;;;;;5.93;4.70;;;30.40;58.90;;;;;;5059245;28;20496;-56
2023/06/10 05:01:25;;;;;;;8.63;5.00;;;30.90;58.60;;;;;;5060400;28;20556;-56
2023/06/10 05:03:51;;;;;;;5.97;4.72;;;31.60;58.00;;;;;;5061233;28;20061;-56
2023/06/10 05:06:17;;;;;;;12.32;5.13;;;32.40;56.70;;;;;;5061727;28;20072;-56
2023/06/10 05:08:43;;;;;;;8.70;4.88;;;33.20;55.60;;;;;;5061462;28;20404;-54
2023/06/10 05:11:08;;;;;;;6.57;4.43;;;33.80;54.50;;;;;;5061689;28;20102;-56
2023/06/10 05:13:34;;;;;;;11.88;4.72;;;34.30;53.40;;;;;;5062741;28;20021;-56
2023/06/10 05:16:00;;;;;;;9.70;4.70;;;34.80;52.40;;;;;;5061785;28;20044;-56
2023/06/10 05:18:26;;;;;;;5.82;4.53;;;35.10;51.60;;;;;;5061658;28;20029;-56
2023/06/10 05:20:53;;;;;;;9.75;4.68;;;35.30;50.90;;;;;;5060749;28;20091;-56
2023/06/10 05:23:19;;;;;;;8.10;4.22;;;35.40;50.50;;;;;;5060780;28;20029;-57
2023/06/10 05:25:45;;;;;;;9.10;4.50;;;35.30;50.40;;;;;;5059306;28;20103;-55
2023/06/10 05:28:11;;;;;;;7.72;4.30;;;35.00;50.50;;;;;;5058136;28;20025;-55
2023/06/10 05:30:37;;;;;;;6.70;4.70;;;34.50;50.50;;;;;;5059024;28;20021;-57
2023/06/10 05:33:04;;;;;;;7.78;4.85;;;34.00;51.20;;;;;;5040694;28;20021;-57
2023/06/10 05:35:30;;;;;;;6.13;4.45;;;33.40;52.00;;;;;;5058563;28;20028;-56
2023/06/10 05:37:55;;;;;;;6.63;5.00;;;32.90;52.60;;;;;;5057570;28;20025;-56
2023/06/10 05:40:21;;;;;;;7.85;4.80;;;32.40;53.30;;;;;;5057125;28;20037;-57
2023/06/10 05:42:47;;;;;;;8.60;4.80;;;31.80;53.90;;;;;;5057439;28;20159;-57
2023/06/10 05:45:12;;;;;;;6.47;5.05;;;31.40;54.60;;;;;;5056515;28;20528;-56
2023/06/10 05:47:38;;;;;;;7.32;4.72;;;30.90;55.10;;;;;;5056742;28;20025;-57
2023/06/10 05:50:08;;;;;;;7.88;4.88;;;30.60;55.70;;;;;;5057034;28;20025;-56
2023/06/10 05:52:37;;;;;;;7.78;4.47;;;30.30;56.20;;;;;;5056195;28;20105;-55
2023/06/10 05:55:03;;;;;;;8.15;5.00;;;30.00;56.80;;;;;;5056985;28;20029;-56
2023/06/10 05:57:29;;;;;;;7.22;4.78;;;29.70;57.40;;;;;;5056225;28;20037;-55
2023/06/10 05:59:55;;;;;;;8.68;4.90;;;29.60;57.60;;;;;;5055803;28;20036;-56
2023/06/10 06:02:20;;;;;;;6.82;4.85;;;29.40;57.90;;;;;;5057339;28;20035;-56
2023/06/10 06:04:46;;;;;;;6.60;4.85;;;29.30;58.20;;;;;;5057722;28;20032;-56
2023/06/10 06:07:12;;;;;;;8.13;5.22;;;29.20;58.40;;;;;;5057809;28;20025;-55
2023/06/10 06:09:38;;;;;;;8.48;5.03;;;29.00;58.60;;;;;;5056345;28;20361;-56
2023/06/10 06:12:04;;;;;;;8.70;5.13;;;28.90;58.60;;;;;;5057464;28;20058;-55
2023/06/10 06:14:32;;;;;;;13.10;5.47;;;28.80;58.90;;;;;;5059071;28;20468;-57
2023/06/10 06:16:57;;;;;;;7.07;4.97;;;28.70;59.00;;;;;;5056090;28;20025;-57
2023/06/10 06:19:23;;;;;;;8.73;5.50;;;28.50;59.30;;;;;;5056311;28;20025;-55
2023/06/10 06:21:49;;;;;;;7.53;5.07;;;28.40;59.60;;;;;;5056133;28;20111;-54
2023/06/10 06:24:16;;;;;;;9.40;5.63;;;28.30;60.00;;;;;;5056715;28;20603;-56
2023/06/10 06:26:41;;;;;;;10.02;5.55;;;28.30;59.90;;;;;;5055941;28;20032;-55
2023/06/10 06:29:07;;;;;;;8.30;5.85;;;28.20;60.70;;;;;;5039685;28;20024;-56
2023/06/10 06:31:33;;;;;;;7.57;5.10;;;28.10;60.20;;;;;;5059728;28;20035;-55
2023/06/10 06:33:58;;;;;;;11.02;5.53;;;28.00;60.00;;;;;;5059991;28;20021;-56
2023/06/10 06:36:24;;;;;;;8.50;5.45;;;27.90;59.90;;;;;;5059261;28;20033;-55
2023/06/10 06:38:50;;;;;;;7.25;5.63;;;27.80;60.30;;;;;;5054589;28;20033;-56
2023/06/10 06:41:15;;;;;;;9.27;5.30;;;27.70;60.50;;;;;;5053590;28;20025;-57
2023/06/10 06:43:42;;;;;;;10.15;5.40;;;27.60;60.50;;;;;;5052520;28;20041;-57
2023/06/10 06:46:08;;;;;;;6.85;5.32;;;27.60;60.50;;;;;;5053437;28;20035;-57
2023/06/10 06:48:34;;;;;;;9.15;5.47;;;27.50;60.70;;;;;;5051962;28;20021;-54
2023/06/10 06:51:00;;;;;;;10.48;5.55;;;27.40;60.80;;;;;;5051773;28;20029;-56
2023/06/10 06:53:25;;;;;;;7.22;5.68;;;27.30;60.90;;;;;;5052951;28;20021;-59
2023/06/10 06:55:51;;;;;;;9.07;5.88;;;27.30;61.10;;;;;;5048660;28;20404;-59
2023/06/10 06:58:17;;;;;;;8.52;5.80;;;27.20;61.40;;;;;;5052732;28;20413;-57
2023/06/10 07:00:42;;;;;;;9.75;5.75;;;27.20;61.60;;;;;;5055751;28;20044;-56
2023/06/10 07:03:08;;;;;;;9.13;6.22;;;27.20;62.10;;;;;;5055264;28;20053;-55
2023/06/10 07:05:33;;;;;;;9.15;5.60;;;27.10;61.90;;;;;;5054611;28;20029;-56
2023/06/10 07:07:59;;;;;;;8.52;5.18;;;27.10;61.60;;;;;;5053687;28;20049;-56
2023/06/10 07:10:25;;;;;;;9.98;5.43;;;27.10;61.40;;;;;;5052274;28;20043;-57
2023/06/10 07:12:52;;;;;;;8.00;5.10;;;27.00;61.30;;;;;;5052651;28;20112;-55
2023/06/10 07:15:17;;;;;;;6.45;4.95;;;26.90;60.30;;;;;;5058955;28;20040;-55
2023/06/10 07:17:43;;;;;;;5.82;4.65;;;26.90;60.10;;;;;;5072107;22;20141;-87
2023/06/10 07:20:09;;;;;;;7.93;4.50;;;26.80;59.50;;;;;;5013354;28;20067;-85
2023/06/10 07:22:35;;;;;;;5.28;4.05;;;26.80;59.00;;;;;;5031150;28;20381;-85
2023/06/10 07:25:01;;;;;;;7.55;4.80;;;26.80;58.20;;;;;;5013410;28;20032;-85
2023/06/10 07:27:26;;;;;;;7.70;4.57;;;26.80;58.10;;;;;;5012154;28;20030;-85
2023/06/10 07:29:52;;;;;;;7.63;4.55;;;26.80;58.20;;;;;;5013879;28;20032;-86
2023/06/10 07:32:22;;;;;;;5.72;4.28;;;26.80;58.70;;;;;;5031645;28;20029;-85
2023/06/10 07:34:47;;;;;;;7.95;4.70;;;26.80;58.40;;;;;;5012793;28;20092;-84
2023/06/10 07:37:13;;;;;;;5.30;3.95;;;26.80;58.30;;;;;;5015805;28;20026;-84
2023/06/10 07:39:39;;;;;;;5.03;3.90;;;26.70;57.30;;;;;;5014210;28;20029;-84
2023/06/10 07:42:05;;;;;;;6.40;4.78;;;26.80;56.50;;;;;;5014231;28;20378;-86
2023/06/10 07:44:30;;;;;;;7.32;4.47;;;26.80;56.70;;;;;;5031192;28;20034;-84
2023/06/10 07:46:57;;;;;;;5.10;4.10;;;26.80;56.90;;;;;;5031032;28;20052;-84
2023/06/10 07:49:23;;;;;;;6.20;4.50;;;26.80;57.30;;;;;;5014267;28;20026;-85
2023/06/10 07:51:49;;;;;;;7.20;4.57;;;26.80;57.80;;;;;;5016788;28;20029;-87
2023/06/10 07:54:15;;;;;;;8.60;4.53;;;26.70;57.40;;;;;;5017350;28;20033;-84
2023/06/10 07:56:41;;;;;;;8.10;4.38;;;26.80;57.70;;;;;;5016834;28;20029;-83
2023/06/10 07:59:06;;;;;;;6.70;4.07;;;26.80;57.10;;;;;;5016865;28;20079;-84
2023/06/10 08:01:32;;;;;;;8.15;4.68;;;26.80;56.50;;;;;;5035758;28;20546;-86
2023/06/10 08:03:58;;;;;;;6.97;4.32;;;26.80;55.70;;;;;;5019368;28;20036;-84
2023/06/10 08:06:24;;;;;;;6.28;5.13;;;26.80;55.70;;;;;;5018471;28;20396;-84
2023/06/10 08:08:49;;;;;;;9.68;4.50;;;26.70;55.80;;;;;;5018805;28;20114;-85
2023/06/10 08:11:15;;;;;;;7.45;4.70;;;26.70;55.90;;;;;;5016900;28;20075;-84
2023/06/10 08:13:42;;;;;;;6.22;3.97;;;26.80;55.80;;;;;;5016810;28;20052;-89
2023/06/10 08:16:08;;;;;;;6.20;3.92;;;26.80;55.40;;;;;;5016507;28;20514;-84
